Time;durP1;ratioP1;P1;durP2;ratioP2;P2;SDS_P1;SDS_P2;PMS_P1;PMS_P2;Temp;Humidity;BMP_temperature;BMP_pressure;BME280_temperature;BME280_humidity;BME280_pressure;Samples;Min_cycle;Max_cycle;Signal;HPM_P1;HPM_P2
2022/09/19 00:01:34;;;;;;;17.90;3.53;;;11.30;99.90;;;;;;5037964;28;20135;-73
2022/09/19 00:04:06;;;;;;;19.67;4.07;;;11.20;99.90;;;;;;5020723;28;20053;-74
2022/09/19 00:06:35;;;;;;;17.70;3.13;;;11.20;99.90;;;;;;5020508;28;20095;-72
2022/09/19 00:09:02;;;;;;;16.38;3.45;;;11.20;99.90;;;;;;5008145;28;20466;-74
2022/09/19 00:11:28;;;;;;;24.23;4.50;;;11.30;99.90;;;;;;5000661;28;20058;-73
2022/09/19 00:13:57;;;;;;;27.40;4.55;;;11.30;99.90;;;;;;5001084;28;20497;-73
2022/09/19 00:16:23;;;;;;;19.77;3.95;;;11.30;99.90;;;;;;5017978;28;20078;-73
2022/09/19 00:18:51;;;;;;;19.98;3.75;;;11.20;99.90;;;;;;5018065;28;20415;-72
2022/09/19 00:21:22;;;;;;;19.15;3.45;;;11.30;99.90;;;;;;5018168;28;20109;-74
2022/09/19 00:26:32;;;;;;;20.85;3.72;;;11.40;99.90;;;;;;5000150;28;20081;-74
2022/09/19 00:28:58;;;;;;;25.45;3.78;;;11.20;99.90;;;;;;5000501;28;20060;-74
2022/09/19 00:31:24;;;;;;;26.77;4.25;;;11.30;99.90;;;;;;5017698;28;20128;-74
2022/09/19 00:33:50;;;;;;;19.95;3.53;;;11.30;99.90;;;;;;5017530;28;20375;-72
2022/09/19 00:36:16;;;;;;;22.48;4.03;;;11.40;99.90;;;;;;5000695;28;20212;-73
2022/09/19 00:38:43;;;;;;;20.10;3.83;;;11.30;99.90;;;;;;5026197;28;20496;-72
2022/09/19 00:41:14;;;;;;;19.45;3.40;;;11.30;99.90;;;;;;5037544;28;20091;-74
2022/09/19 00:44:02;;;;;;;22.00;3.92;;;11.30;99.90;;;;;;5037205;28;20091;-73
2022/09/19 00:46:31;;;;;;;16.60;3.88;;;11.30;99.90;;;;;;5037057;28;20163;-75
2022/09/19 00:49:01;;;;;;;24.40;4.47;;;11.30;99.90;;;;;;5037283;28;20049;-73
2022/09/19 00:51:40;;;;;;;20.38;3.60;;;11.40;99.90;;;;;;5037297;28;20107;-75
2022/09/19 00:54:12;;;;;;;19.67;3.63;;;11.40;99.90;;;;;;5036703;28;20041;-73
2022/09/19 00:56:42;;;;;;;27.17;3.88;;;11.30;99.90;;;;;;5037237;28;20042;-73
2022/09/19 00:59:08;;;;;;;23.40;3.92;;;11.30;99.90;;;;;;5036935;28;20049;-74
2022/09/19 01:01:35;;;;;;;23.00;3.97;;;11.30;99.90;;;;;;5036816;28;20045;-75
2022/09/19 01:04:01;;;;;;;21.95;3.63;;;11.30;99.90;;;;;;5037082;28;20420;-74
2022/09/19 01:06:37;;;;;;;20.92;3.63;;;11.20;99.90;;;;;;5028268;28;20061;-74
2022/09/19 01:09:02;;;;;;;24.45;4.03;;;11.20;99.90;;;;;;5021475;28;20095;-73
2022/09/19 01:11:37;;;;;;;30.00;4.18;;;11.30;99.90;;;;;;5028140;28;20054;-73
2022/09/19 01:14:11;;;;;;;20.10;4.03;;;11.10;99.90;;;;;;5016900;28;20130;-73
2022/09/19 01:16:50;;;;;;;22.67;3.92;;;11.10;99.90;;;;;;5016987;28;20053;-73
2022/09/19 01:19:35;;;;;;;28.70;4.30;;;11.20;99.90;;;;;;5017477;28;20050;-73
2022/09/19 01:22:23;;;;;;;26.90;4.80;;;11.10;99.90;;;;;;5016584;28;20133;-74
2022/09/19 01:24:56;;;;;;;29.90;4.53;;;11.10;99.90;;;;;;5016618;28;20053;-73
2022/09/19 01:27:40;;;;;;;27.05;4.43;;;11.10;99.90;;;;;;5016112;28;20053;-73
2022/09/19 01:30:09;;;;;;;29.92;4.47;;;11.10;99.90;;;;;;5036345;28;20045;-73
2022/09/19 01:32:51;;;;;;;25.73;4.38;;;11.20;99.90;;;;;;5036244;28;20111;-73
2022/09/19 01:35:23;;;;;;;23.90;4.32;;;11.20;99.90;;;;;;5036028;28;20127;-73
2022/09/19 01:38:03;;;;;;;27.75;4.55;;;11.20;99.90;;;;;;5036459;28;20120;-74
2022/09/19 01:40:30;;;;;;;23.77;4.07;;;11.20;99.90;;;;;;5031885;28;20046;-73
2022/09/19 01:42:56;;;;;;;27.13;4.80;;;11.30;99.90;;;;;;5016142;28;20041;-73
2022/09/19 01:45:39;;;;;;;22.17;3.67;;;11.30;99.90;;;;;;4999637;28;20052;-73
2022/09/19 01:48:24;;;;;;;32.85;4.50;;;11.40;99.90;;;;;;5017504;28;20078;-73
2022/09/19 01:51:28;;;;;;;22.90;4.25;;;11.40;99.90;;;;;;5016124;28;20058;-72
2022/09/19 01:54:15;;;;;;;26.17;4.07;;;11.40;99.90;;;;;;5004638;28;20076;-73
2022/09/19 01:57:19;;;;;;;23.75;4.30;;;11.40;99.90;;;;;;5016235;28;20046;-73
2022/09/19 01:59:51;;;;;;;22.95;4.18;;;11.40;99.90;;;;;;4998420;28;20053;-73
2022/09/19 02:02:28;;;;;;;19.05;3.83;;;11.40;99.90;;;;;;5015711;28;20077;-73
2022/09/19 02:05:04;;;;;;;20.42;4.40;;;11.50;99.90;;;;;;4998819;28;20447;-73
2022/09/19 02:07:55;;;;;;;26.20;4.25;;;11.50;99.90;;;;;;5015852;28;20057;-73
2022/09/19 02:10:26;;;;;;;25.42;3.78;;;11.50;99.90;;;;;;4998916;28;20057;-74
2022/09/19 02:12:55;;;;;;;23.30;4.15;;;11.50;99.90;;;;;;5015856;28;20046;-73
2022/09/19 02:15:28;;;;;;;32.90;4.47;;;11.50;99.90;;;;;;4998630;28;20495;-73
2022/09/19 02:18:01;;;;;;;17.65;3.50;;;11.50;99.90;;;;;;5032649;28;20124;-73
2022/09/19 02:20:31;;;;;;;23.50;3.90;;;11.50;99.90;;;;;;5035616;28;20060;-72
2022/09/19 02:23:03;;;;;;;20.42;3.90;;;11.50;99.90;;;;;;5017884;28;20454;-73
2022/09/19 02:25:32;;;;;;;18.85;4.38;;;11.50;99.90;;;;;;5035616;28;20091;-73
2022/09/19 02:28:04;;;;;;;22.98;4.25;;;11.40;99.90;;;;;;5035389;28;20096;-74
2022/09/19 02:30:30;;;;;;;36.15;4.18;;;11.50;99.90;;;;;;5034822;28;20053;-73
2022/09/19 02:32:57;;;;;;;27.52;4.13;;;11.50;99.90;;;;;;5027147;28;20436;-73
2022/09/19 02:35:38;;;;;;;23.33;4.15;;;11.50;99.90;;;;;;5018516;28;20041;-73
2022/09/19 02:38:13;;;;;;;27.23;5.57;;;11.50;99.90;;;;;;5035461;28;20050;-73
2022/09/19 02:41:17;;;;;;;22.40;4.75;;;11.50;99.90;;;;;;5035205;28;20041;-73
2022/09/19 02:43:49;;;;;;;24.13;3.72;;;11.50;99.90;;;;;;5006327;28;20096;-72
2022/09/19 02:46:31;;;;;;;28.17;4.40;;;11.50;99.90;;;;;;5037345;28;20465;-73
2022/09/19 02:49:03;;;;;;;32.80;4.53;;;11.50;99.90;;;;;;5055143;28;20357;-73
2022/09/19 02:51:40;;;;;;;27.08;4.03;;;11.50;99.90;;;;;;5055126;28;20079;-74
2022/09/19 02:54:17;;;;;;;25.45;4.40;;;11.60;99.90;;;;;;5055033;28;20056;-73
2022/09/19 02:56:44;;;;;;;24.50;4.25;;;11.60;99.90;;;;;;5037549;28;20040;-73
2022/09/19 02:59:17;;;;;;;24.55;3.78;;;11.80;99.90;;;;;;5054962;28;20067;-74
2022/09/19 03:01:49;;;;;;;26.48;3.72;;;11.50;99.90;;;;;;5036809;28;20116;-74
2022/09/19 03:04:23;;;;;;;19.77;4.05;;;11.50;99.90;;;;;;5054657;28;20037;-74
2022/09/19 03:07:01;;;;;;;24.17;3.85;;;11.50;99.90;;;;;;5054839;28;20048;-73
2022/09/19 03:09:30;;;;;;;23.65;3.83;;;11.50;99.90;;;;;;5055481;28;20422;-74
2022/09/19 03:12:04;;;;;;;24.15;3.92;;;11.50;99.90;;;;;;5055074;28;20056;-73
2022/09/19 03:14:31;;;;;;;15.95;3.55;;;11.50;99.90;;;;;;5054747;28;20132;-74
2022/09/19 03:16:58;;;;;;;19.15;3.35;;;11.40;99.90;;;;;;5040877;28;20045;-73
2022/09/19 03:19:24;;;;;;;21.52;3.72;;;11.40;99.90;;;;;;5034816;28;20072;-73
2022/09/19 03:21:54;;;;;;;19.33;3.42;;;11.30;99.90;;;;;;5034880;28;20048;-74
2022/09/19 03:24:20;;;;;;;20.52;3.05;;;11.30;99.90;;;;;;5034668;28;20576;-74
2022/09/19 03:26:46;;;;;;;19.40;3.67;;;11.20;99.90;;;;;;5034134;28;20075;-74
2022/09/19 03:29:12;;;;;;;23.60;4.18;;;11.20;99.90;;;;;;5034382;28;20034;-73
2022/09/19 03:31:38;;;;;;;23.05;3.40;;;11.20;99.90;;;;;;5034561;28;20045;-74
2022/09/19 03:34:03;;;;;;;22.48;3.50;;;11.10;99.90;;;;;;5034865;28;20053;-73
2022/09/19 03:36:33;;;;;;;27.90;3.70;;;11.20;99.90;;;;;;5034496;28;20048;-73
2022/09/19 03:39:01;;;;;;;22.45;3.40;;;11.20;99.90;;;;;;5034955;28;20049;-73
2022/09/19 03:41:27;;;;;;;25.30;3.30;;;11.20;99.90;;;;;;5034391;28;20052;-74
2022/09/19 03:43:53;;;;;;;22.67;3.53;;;11.20;99.90;;;;;;5034402;28;20042;-74
2022/09/19 03:46:20;;;;;;;25.98;3.97;;;11.20;99.90;;;;;;5046631;28;20041;-74
2022/09/19 03:48:46;;;;;;;25.65;3.38;;;11.20;99.90;;;;;;5054586;28;20049;-73
2022/09/19 03:51:17;;;;;;;18.17;3.03;;;11.20;99.90;;;;;;5054493;28;20516;-72
2022/09/19 03:53:43;;;;;;;17.75;3.40;;;11.20;99.90;;;;;;5036504;28;20057;-75
2022/09/19 03:56:10;;;;;;;30.23;4.55;;;11.20;99.90;;;;;;5054231;28;20044;-73
2022/09/19 03:58:37;;;;;;;23.75;3.80;;;11.30;99.90;;;;;;5038716;28;20437;-73
2022/09/19 04:01:04;;;;;;;17.73;3.25;;;11.30;99.90;;;;;;5027682;28;20049;-75
2022/09/19 04:03:30;;;;;;;26.02;4.50;;;11.30;99.90;;;;;;5037740;28;20095;-73
2022/09/19 04:05:55;;;;;;;18.48;3.72;;;11.30;99.90;;;;;;5020311;28;20041;-75
2022/09/19 04:08:21;;;;;;;23.40;3.78;;;11.40;99.90;;;;;;5038157;28;20469;-73
2022/09/19 04:10:47;;;;;;;18.20;4.07;;;11.40;99.90;;;;;;5037741;28;20068;-74
2022/09/19 04:13:13;;;;;;;27.92;4.57;;;11.40;99.90;;;;;;5037875;28;20049;-73
2022/09/19 04:15:39;;;;;;;25.15;4.40;;;11.40;99.90;;;;;;5043083;28;20037;-73
2022/09/19 04:18:05;;;;;;;20.20;3.85;;;11.40;99.90;;;;;;5057419;28;20045;-73
2022/09/19 04:20:31;;;;;;;26.98;4.32;;;11.30;99.90;;;;;;5057718;28;20068;-74
2022/09/19 04:23:00;;;;;;;24.17;4.45;;;11.40;99.90;;;;;;5057575;28;20045;-74
2022/09/19 04:25:32;;;;;;;24.02;3.83;;;11.50;99.90;;;;;;5057983;28;20045;-73
2022/09/19 04:28:00;;;;;;;28.07;4.87;;;11.20;99.90;;;;;;5040277;28;20056;-74
2022/09/19 04:30:26;;;;;;;24.33;4.43;;;11.10;99.90;;;;;;5040361;28;20098;-73
2022/09/19 04:32:51;;;;;;;32.05;4.93;;;11.20;99.90;;;;;;5057340;28;20044;-73
2022/09/19 04:35:18;;;;;;;26.98;5.50;;;11.20;99.90;;;;;;5057111;28;20071;-74
2022/09/19 04:37:44;;;;;;;21.95;4.78;;;11.30;99.90;;;;;;5039986;28;20045;-73
2022/09/19 04:40:10;;;;;;;19.30;3.58;;;11.30;99.90;;;;;;5057214;28;20310;-73
2022/09/19 04:42:36;;;;;;;17.73;4.00;;;11.30;99.90;;;;;;5057087;28;20044;-73
2022/09/19 04:45:02;;;;;;;18.63;3.53;;;11.30;99.90;;;;;;5039083;28;20044;-75
2022/09/19 04:47:28;;;;;;;18.05;4.38;;;11.30;99.90;;;;;;5020038;28;20046;-74
2022/09/19 04:49:56;;;;;;;18.25;3.28;;;11.30;99.90;;;;;;5019926;28;20080;-74
2022/09/19 04:52:23;;;;;;;16.08;3.13;;;11.30;99.90;;;;;;5037058;28;20045;-73
2022/09/19 04:54:49;;;;;;;22.45;3.53;;;11.30;99.90;;;;;;5019911;28;20045;-74
2022/09/19 04:57:15;;;;;;;21.13;3.22;;;11.30;99.90;;;;;;5020091;28;20049;-74
2022/09/19 04:59:41;;;;;;;18.60;3.08;;;11.30;99.90;;;;;;5019881;28;20057;-74
2022/09/19 05:02:08;;;;;;;20.50;3.30;;;11.30;99.90;;;;;;5055316;28;20060;-74
2022/09/19 05:04:34;;;;;;;16.38;3.75;;;11.30;99.90;;;;;;5057719;28;20421;-74
2022/09/19 05:07:00;;;;;;;18.92;3.95;;;11.40;99.90;;;;;;5056731;28;20361;-74
2022/09/19 05:09:26;;;;;;;20.83;4.03;;;11.50;99.90;;;;;;5022205;28;20450;-74
2022/09/19 05:11:55;;;;;;;24.42;4.07;;;11.40;99.90;;;;;;5056672;28;20106;-75
2022/09/19 05:14:21;;;;;;;28.77;4.20;;;11.40;99.90;;;;;;5056651;28;20053;-73
2022/09/19 05:16:50;;;;;;;23.73;4.28;;;11.40;99.90;;;;;;5042364;28;20462;-74
2022/09/19 05:19:16;;;;;;;28.60;4.78;;;11.40;99.90;;;;;;5036773;28;20049;-74
2022/09/19 05:21:43;;;;;;;25.42;4.07;;;11.70;99.90;;;;;;5036848;28;20049;-74
2022/09/19 05:24:09;;;;;;;28.15;4.55;;;11.40;99.90;;;;;;5019799;28;20110;-73
2022/09/19 05:26:37;;;;;;;35.92;4.43;;;11.40;99.90;;;;;;5036342;28;20120;-73
2022/09/19 05:29:02;;;;;;;26.13;5.10;;;11.40;99.90;;;;;;5036326;28;20049;-74
2022/09/19 05:31:28;;;;;;;35.10;5.25;;;11.40;99.90;;;;;;5049430;28;20472;-74
2022/09/19 05:33:54;;;;;;;27.05;4.65;;;11.40;99.90;;;;;;5038311;28;20049;-74
2022/09/19 05:36:20;;;;;;;24.63;5.30;;;11.40;99.90;;;;;;5056481;28;20037;-74
2022/09/19 05:38:46;;;;;;;33.92;5.13;;;11.40;99.90;;;;;;5056185;28;20055;-74
2022/09/19 05:41:12;;;;;;;30.15;5.10;;;11.40;99.90;;;;;;5056407;28;20084;-74
2022/09/19 05:43:37;;;;;;;32.47;5.25;;;11.40;99.90;;;;;;5056207;28;20106;-74
2022/09/19 05:46:04;;;;;;;28.77;4.78;;;11.40;99.90;;;;;;5048180;28;20045;-75
2022/09/19 05:48:30;;;;;;;30.92;4.95;;;11.40;99.90;;;;;;5018409;28;20045;-73
2022/09/19 05:50:55;;;;;;;26.42;4.82;;;11.40;99.90;;;;;;5035929;28;20099;-73
2022/09/19 05:56:07;;;;;;;31.65;5.10;;;11.50;99.90;;;;;;5018513;28;20136;-73
2022/09/19 05:58:35;;;;;;;33.15;5.43;;;11.50;99.90;;;;;;5035650;28;20133;-73
2022/09/19 06:01:11;;;;;;;26.80;4.30;;;11.60;99.90;;;;;;5045105;28;20080;-74
2022/09/19 06:03:38;;;;;;;23.05;5.65;;;11.60;99.90;;;;;;5055169;28;20096;-73
2022/09/19 06:06:11;;;;;;;29.52;4.82;;;11.70;99.90;;;;;;5055645;28;20052;-73
2022/09/19 06:08:42;;;;;;;35.77;5.63;;;11.70;99.90;;;;;;5056016;28;20053;-74
2022/09/19 06:11:09;;;;;;;23.40;3.45;;;11.70;99.90;;;;;;5055540;28;20284;-73
2022/09/19 06:16:19;;;;;;;24.70;4.43;;;11.70;99.90;;;;;;5055384;28;20059;-73
2022/09/19 06:18:45;;;;;;;21.50;3.75;;;11.80;99.90;;;;;;5037599;28;20048;-73
2022/09/19 06:21:10;;;;;;;23.35;4.13;;;11.70;99.90;;;;;;5018215;28;20211;-73
2022/09/19 06:23:36;;;;;;;20.40;4.00;;;11.70;99.90;;;;;;5018216;28;20469;-74
2022/09/19 06:26:01;;;;;;;24.80;3.83;;;11.70;99.90;;;;;;5035683;28;20445;-75
2022/09/19 06:28:27;;;;;;;25.33;4.10;;;11.70;99.90;;;;;;5034779;28;20079;-73
2022/09/19 06:30:53;;;;;;;30.30;4.50;;;11.80;99.90;;;;;;5042622;28;20056;-74
2022/09/19 06:33:19;;;;;;;20.83;4.40;;;11.70;99.90;;;;;;5054974;28;20055;-74
2022/09/19 06:35:44;;;;;;;27.65;4.03;;;11.80;99.90;;;;;;5055127;28;20049;-74
2022/09/19 06:38:11;;;;;;;20.90;4.20;;;11.90;99.90;;;;;;5037376;28;20504;-73
2022/09/19 06:40:38;;;;;;;24.10;4.00;;;12.10;99.90;;;;;;5037466;28;20388;-75
2022/09/19 06:43:05;;;;;;;18.63;4.35;;;12.50;99.90;;;;;;5054780;28;20075;-75
2022/09/19 06:45:38;;;;;;;15.95;3.00;;;12.50;99.90;;;;;;5055032;28;20052;-75
2022/09/19 06:48:05;;;;;;;15.27;3.10;;;12.50;99.90;;;;;;5054861;28;20060;-75
2022/09/19 06:50:31;;;;;;;21.80;3.85;;;12.40;99.90;;;;;;5055151;28;20091;-74
2022/09/19 06:52:57;;;;;;;18.90;3.40;;;12.50;99.90;;;;;;5055029;28;20119;-75
2022/09/19 06:55:24;;;;;;;16.25;2.95;;;12.60;99.90;;;;;;5055062;28;20132;-74
2022/09/19 06:58:10;;;;;;;23.50;3.78;;;12.70;99.90;;;;;;5055203;28;20059;-74
2022/09/19 07:00:38;;;;;;;21.05;3.75;;;12.70;99.90;;;;;;5049269;28;20452;-74
2022/09/19 07:03:22;;;;;;;21.90;3.45;;;12.80;99.90;;;;;;5034759;28;20041;-75
2022/09/19 07:05:47;;;;;;;22.90;3.80;;;12.90;99.90;;;;;;5034838;28;20053;-74
2022/09/19 07:08:13;;;;;;;23.10;3.28;;;13.00;99.90;;;;;;5034701;28;20058;-75
2022/09/19 07:10:40;;;;;;;17.10;4.07;;;13.00;99.90;;;;;;5034718;28;20042;-75
2022/09/19 07:13:08;;;;;;;18.65;3.35;;;13.10;99.90;;;;;;5034783;28;20343;-75
2022/09/19 07:15:35;;;;;;;27.25;4.15;;;12.90;99.90;;;;;;5034789;28;20046;-74
2022/09/19 07:18:02;;;;;;;24.33;3.75;;;12.90;99.90;;;;;;5043979;28;20500;-74
2022/09/19 07:20:28;;;;;;;21.25;3.83;;;12.80;99.90;;;;;;5036855;28;20106;-74
2022/09/19 07:23:13;;;;;;;21.73;3.90;;;12.90;99.90;;;;;;5054285;28;20094;-74
2022/09/19 07:25:40;;;;;;;18.92;3.60;;;12.90;99.90;;;;;;5033662;28;20045;-74
2022/09/19 07:28:09;;;;;;;18.15;3.58;;;13.00;99.90;;;;;;5034584;28;20072;-74
2022/09/19 07:30:35;;;;;;;20.95;3.60;;;13.10;99.90;;;;;;5034709;28;20053;-74
2022/09/19 07:33:02;;;;;;;24.15;3.85;;;13.20;99.90;;;;;;5017811;28;20053;-74
2022/09/19 07:35:30;;;;;;;21.02;3.67;;;13.30;99.90;;;;;;5038485;28;20049;-74
2022/09/19 07:37:56;;;;;;;18.55;3.55;;;13.40;99.90;;;;;;5038452;28;20041;-76
2022/09/19 07:40:22;;;;;;;16.55;3.10;;;13.50;99.90;;;;;;5038257;28;20427;-75
2022/09/19 07:42:50;;;;;;;18.63;3.50;;;13.50;99.90;;;;;;5021238;28;20384;-74
2022/09/19 07:45:16;;;;;;;22.73;3.60;;;13.60;99.90;;;;;;5038440;28;20052;-74
2022/09/19 07:47:46;;;;;;;14.20;3.08;;;13.70;99.90;;;;;;5038290;28;20889;-75
2022/09/19 07:50:16;;;;;;;19.13;3.55;;;13.90;99.90;;;;;;5038481;28;20064;-75
2022/09/19 07:52:48;;;;;;;18.67;3.45;;;13.90;99.90;;;;;;5038222;28;20057;-74
2022/09/19 07:55:16;;;;;;;22.52;3.72;;;13.90;99.90;;;;;;5041835;28;20041;-74
2022/09/19 07:57:52;;;;;;;21.30;4.18;;;14.00;99.90;;;;;;5040854;28;20048;-75
2022/09/19 08:00:18;;;;;;;22.67;3.70;;;14.10;99.90;;;;;;5058803;28;20440;-74
2022/09/19 08:02:51;;;;;;;16.65;3.60;;;14.20;99.90;;;;;;5057796;28;20098;-74
2022/09/19 08:05:17;;;;;;;16.35;3.42;;;14.20;99.90;;;;;;5057883;28;20132;-74
2022/09/19 08:07:43;;;;;;;19.48;3.55;;;14.10;99.90;;;;;;5058161;28;20128;-74
2022/09/19 08:10:09;;;;;;;14.93;3.47;;;13.90;99.90;;;;;;5057761;28;20136;-74
2022/09/19 08:12:34;;;;;;;20.70;4.05;;;13.80;99.90;;;;;;5057722;28;20056;-74
2022/09/19 08:15:01;;;;;;;18.50;3.17;;;13.70;99.90;;;;;;5057755;28;20036;-75
2022/09/19 08:17:26;;;;;;;16.08;3.05;;;13.60;99.90;;;;;;5040464;28;20084;-75
2022/09/19 08:19:52;;;;;;;15.13;3.50;;;13.60;99.90;;;;;;5057674;28;20088;-74
2022/09/19 08:22:18;;;;;;;24.55;4.47;;;13.40;99.90;;;;;;5057650;28;20041;-75
2022/09/19 08:24:43;;;;;;;23.73;3.88;;;13.50;99.90;;;;;;5053686;28;20099;-74
2022/09/19 08:27:10;;;;;;;18.48;3.25;;;13.50;99.90;;;;;;5037539;28;20052;-74
2022/09/19 08:29:37;;;;;;;26.45;3.85;;;13.60;99.90;;;;;;5037485;28;20067;-74
2022/09/19 08:32:03;;;;;;;22.70;4.10;;;13.60;99.90;;;;;;5037541;28;20053;-73
2022/09/19 08:34:29;;;;;;;22.15;3.92;;;13.60;99.90;;;;;;5037698;28;20053;-75
2022/09/19 08:36:58;;;;;;;14.88;3.13;;;13.60;99.90;;;;;;5020238;28;20389;-74
2022/09/19 08:39:25;;;;;;;18.45;3.97;;;13.60;99.90;;;;;;5040038;28;20040;-75
2022/09/19 08:42:25;;;;;;;18.58;3.88;;;13.60;99.90;;;;;;5056330;28;20045;-74
2022/09/19 08:44:59;;;;;;;17.95;3.65;;;13.60;99.90;;;;;;5049266;28;20049;-74
2022/09/19 08:47:27;;;;;;;17.30;3.60;;;13.60;99.90;;;;;;5037420;28;20045;-73
2022/09/19 08:50:05;;;;;;;15.98;3.22;;;13.70;99.90;;;;;;5037272;28;20052;-73
2022/09/19 08:52:39;;;;;;;16.33;3.50;;;13.70;99.90;;;;;;5020434;28;20163;-73
2022/09/19 08:55:10;;;;;;;22.90;4.43;;;13.90;99.90;;;;;;5037176;28;20045;-74
2022/09/19 08:57:58;;;;;;;18.92;4.57;;;13.90;99.90;;;;;;5037115;28;20081;-74
2022/09/19 09:00:26;;;;;;;23.08;4.13;;;14.10;99.90;;;;;;5019231;28;20457;-75
2022/09/19 09:02:59;;;;;;;19.55;3.45;;;14.10;99.90;;;;;;5037203;28;20108;-73
2022/09/19 09:05:46;;;;;;;25.25;4.22;;;14.20;99.90;;;;;;5019743;28;20042;-73
2022/09/19 09:08:38;;;;;;;19.70;3.83;;;14.30;99.90;;;;;;5019459;28;20045;-74
2022/09/19 09:11:22;;;;;;;17.42;3.83;;;14.40;99.90;;;;;;5036756;28;20453;-75
2022/09/19 09:14:26;;;;;;;25.42;4.85;;;14.40;99.90;;;;;;5037814;28;20370;-74
2022/09/19 09:17:08;;;;;;;14.35;3.42;;;14.60;99.90;;;;;;5056741;28;20083;-75
2022/09/19 09:20:03;;;;;;;14.45;2.92;;;14.70;99.90;;;;;;5056036;28;20104;-74
2022/09/19 09:22:38;;;;;;;15.10;3.10;;;14.70;99.90;;;;;;5056264;28;20481;-74
2022/09/19 09:25:15;;;;;;;14.20;3.42;;;14.80;99.90;;;;;;5039088;28;20457;-75
2022/09/19 09:27:52;;;;;;;22.38;3.92;;;14.90;99.90;;;;;;5056295;28;20523;-75
2022/09/19 09:30:19;;;;;;;13.63;3.05;;;15.00;99.90;;;;;;5038544;28;20049;-74
2022/09/19 09:32:53;;;;;;;16.35;3.28;;;15.10;99.90;;;;;;5056583;28;20052;-75
2022/09/19 09:35:26;;;;;;;14.82;3.20;;;15.20;99.90;;;;;;5038418;28;20048;-75
2022/09/19 09:38:01;;;;;;;20.65;3.33;;;15.30;99.90;;;;;;5036429;28;20053;-75
2022/09/19 09:44:03;;;;;;;18.05;3.35;;;15.50;99.90;;;;;;5036103;28;20090;-74
2022/09/19 09:46:49;;;;;;;18.75;3.28;;;15.50;99.90;;;;;;5018605;28;20060;-75
2022/09/19 09:49:16;;;;;;;18.60;3.70;;;15.40;99.90;;;;;;5036141;28;20565;-75
2022/09/19 09:51:58;;;;;;;16.95;3.33;;;15.40;99.90;;;;;;5036093;28;20045;-74
2022/09/19 09:58:06;;;;;;;12.85;2.88;;;15.20;99.90;;;;;;5036153;28;20423;-75
2022/09/19 10:03:34;;;;;;;6.47;1.52;;;14.20;99.90;;;;;;5035742;28;20488;-75
2022/09/19 10:06:17;;;;;;;7.00;1.80;;;13.80;99.90;;;;;;5035916;28;20449;-75
2022/09/19 10:09:04;;;;;;;9.63;2.13;;;13.50;99.90;;;;;;5035803;28;20109;-75
2022/09/19 10:11:45;;;;;;;10.77;1.90;;;13.20;99.90;;;;;;5035581;28;20045;-74
2022/09/19 10:14:21;;;;;;;9.77;2.67;;;13.00;99.90;;;;;;5034634;28;20137;-75
2022/09/19 10:16:48;;;;;;;9.05;2.13;;;12.80;99.90;;;;;;5018368;28;20049;-75
2022/09/19 10:19:35;;;;;;;13.45;2.10;;;12.80;99.90;;;;;;5034862;28;20072;-75
2022/09/19 10:22:00;;;;;;;19.10;3.00;;;12.70;99.90;;;;;;5035588;28;20151;-74
2022/09/19 10:24:47;;;;;;;13.77;2.88;;;12.70;99.90;;;;;;5035587;28;20116;-74
2022/09/19 10:27:33;;;;;;;17.15;3.58;;;12.80;99.90;;;;;;5035413;28;20045;-74
2022/09/19 10:30:06;;;;;;;12.57;2.78;;;13.00;99.90;;;;;;5021568;28;20065;-74
2022/09/19 10:32:36;;;;;;;17.58;3.20;;;12.80;99.90;;;;;;5036106;28;20049;-74
2022/09/19 10:35:25;;;;;;;20.05;2.90;;;12.80;99.90;;;;;;5035389;28;20351;-74
2022/09/19 10:38:13;;;;;;;20.23;3.42;;;12.80;99.90;;;;;;5042668;28;20045;-75
2022/09/19 10:40:58;;;;;;;18.67;4.30;;;13.00;99.90;;;;;;5055041;28;20052;-75
2022/09/19 10:43:32;;;;;;;16.73;3.47;;;13.10;99.90;;;;;;5055001;28;20037;-74
2022/09/19 10:46:05;;;;;;;24.50;3.72;;;13.20;99.90;;;;;;5055144;28;20049;-75
2022/09/19 10:48:33;;;;;;;20.73;3.92;;;13.40;99.90;;;;;;5037223;28;20052;-74
2022/09/19 10:50:59;;;;;;;24.88;4.15;;;13.80;99.90;;;;;;5037255;28;20049;-75
2022/09/19 10:53:30;;;;;;;20.88;4.60;;;14.00;99.90;;;;;;5039719;28;20048;-74
2022/09/19 10:56:00;;;;;;;21.52;4.18;;;14.10;99.90;;;;;;5034948;28;20044;-75
2022/09/19 10:58:26;;;;;;;14.13;3.45;;;14.20;99.90;;;;;;5035009;28;20079;-74
2022/09/19 11:01:04;;;;;;;16.55;3.50;;;14.30;99.90;;;;;;5034998;28;20042;-74
2022/09/19 11:03:36;;;;;;;15.18;3.25;;;14.60;99.90;;;;;;5035063;28;20041;-74
2022/09/19 11:06:05;;;;;;;14.77;3.92;;;14.80;99.90;;;;;;5017671;28;20053;-74
2022/09/19 11:08:41;;;;;;;14.00;3.05;;;14.90;99.90;;;;;;5050778;28;20045;-75
2022/09/19 11:11:46;;;;;;;10.32;2.50;;;14.80;99.90;;;;;;5037188;28;20044;-75
2022/09/19 11:14:19;;;;;;;13.45;3.38;;;14.90;99.90;;;;;;5014029;28;20060;-75
2022/09/19 11:17:05;;;;;;;7.45;2.00;;;14.90;99.90;;;;;;5055074;28;20056;-75
2022/09/19 11:19:52;;;;;;;10.63;2.25;;;14.90;99.90;;;;;;5054877;28;20420;-75
2022/09/19 11:22:45;;;;;;;10.80;2.72;;;14.80;99.90;;;;;;5035014;28;20053;-74
2022/09/19 11:25:13;;;;;;;12.45;2.97;;;14.80;99.90;;;;;;5036544;28;20424;-76
2022/09/19 11:27:54;;;;;;;11.68;2.95;;;14.80;99.90;;;;;;5054774;28;20055;-74
2022/09/19 11:30:24;;;;;;;11.57;3.03;;;14.80;99.90;;;;;;5054697;28;20152;-75
2022/09/19 11:33:11;;;;;;;19.58;3.13;;;14.80;99.90;;;;;;5054358;28;20501;-74
2022/09/19 11:35:49;;;;;;;12.63;3.08;;;14.90;99.90;;;;;;5054574;28;20453;-74
2022/09/19 11:39:03;;;;;;;15.75;3.15;;;15.00;99.90;;;;;;5036944;28;20048;-75
2022/09/19 11:41:56;;;;;;;21.27;3.47;;;15.10;99.90;;;;;;4957821;28;20233;-75
2022/09/19 11:44:51;;;;;;;16.77;3.53;;;15.30;99.90;;;;;;4973572;28;20422;-76
2022/09/19 11:47:41;;;;;;;17.63;3.17;;;15.50;99.90;;;;;;5047512;28;20813;-75
2022/09/19 11:50:32;;;;;;;14.45;3.30;;;15.50;99.90;;;;;;5054277;28;20140;-74
2022/09/19 11:53:29;;;;;;;13.98;3.13;;;15.30;99.90;;;;;;5039670;28;20050;-75
2022/09/19 11:56:17;;;;;;;17.60;3.35;;;15.10;99.90;;;;;;5034726;28;20188;-75
2022/09/19 11:59:04;;;;;;;12.05;3.13;;;15.00;99.90;;;;;;5016653;28;20049;-76
2022/09/19 12:01:48;;;;;;;13.93;2.92;;;15.00;99.90;;;;;;5034003;28;20041;-74
2022/09/19 12:04:23;;;;;;;14.85;3.25;;;15.20;99.90;;;;;;5034005;28;20092;-74
2022/09/19 12:07:01;;;;;;;13.90;3.28;;;15.40;99.90;;;;;;5007724;28;20045;-75
2022/09/19 12:09:35;;;;;;;10.90;2.97;;;15.60;99.90;;;;;;5054166;28;20045;-75
2022/09/19 12:12:11;;;;;;;12.75;2.78;;;15.70;99.90;;;;;;5053755;28;20056;-75
2022/09/19 12:14:57;;;;;;;15.25;3.72;;;15.70;99.90;;;;;;5054002;28;20064;-75
2022/09/19 12:17:26;;;;;;;11.55;3.20;;;15.80;99.90;;;;;;5054286;28;20140;-74
2022/09/19 12:20:18;;;;;;;16.77;3.45;;;15.80;99.90;;;;;;5056440;28;20048;-76
2022/09/19 12:24:52;;;;;;;13.48;3.13;;;15.80;99.90;;;;;;5045562;28;20100;-75
2022/09/19 12:25:46;;;;;;;16.02;2.88;;;15.70;99.90;;;;;;5057480;28;20428;-76
2022/09/19 12:28:15;;;;;;;13.55;3.28;;;15.60;99.90;;;;;;5057807;28;20334;-75
2022/09/19 12:30:48;;;;;;;16.65;4.38;;;15.40;99.90;;;;;;5039855;28;20056;-76
2022/09/19 12:33:37;;;;;;;17.08;3.90;;;15.50;99.90;;;;;;5057321;28;20059;-75
2022/09/19 12:36:14;;;;;;;15.00;3.30;;;15.40;99.90;;;;;;5057013;28;20128;-75
2022/09/19 12:39:19;;;;;;;20.40;3.90;;;15.60;99.90;;;;;;5019682;28;20508;-75
2022/09/19 12:41:55;;;;;;;14.32;3.40;;;15.80;99.90;;;;;;5036862;28;20060;-76
2022/09/19 12:44:39;;;;;;;15.52;3.22;;;15.80;99.90;;;;;;5037479;28;20076;-75
2022/09/19 12:47:43;;;;;;;16.02;3.80;;;15.70;99.90;;;;;;5019894;28;20049;-75
2022/09/19 12:50:22;;;;;;;14.17;3.40;;;15.60;99.90;;;;;;5037232;28;20052;-76
2022/09/19 12:53:22;;;;;;;17.95;3.42;;;15.60;99.90;;;;;;5053387;28;20045;-75
2022/09/19 12:55:56;;;;;;;18.67;3.30;;;15.80;99.90;;;;;;5033774;28;20061;-74
2022/09/19 12:58:42;;;;;;;16.13;3.22;;;15.80;99.90;;;;;;5057502;28;20076;-75
2022/09/19 13:01:23;;;;;;;17.15;3.83;;;15.80;99.90;;;;;;5039596;28;20048;-74
2022/09/19 13:04:09;;;;;;;14.02;2.85;;;15.80;99.90;;;;;;5039306;28;20060;-76
2022/09/19 13:06:40;;;;;;;11.18;2.63;;;15.80;99.90;;;;;;5052509;28;20065;-75
2022/09/19 13:09:29;;;;;;;20.17;4.50;;;15.80;99.90;;;;;;5036607;28;20478;-74
2022/09/19 13:11:59;;;;;;;16.20;3.63;;;16.00;99.90;;;;;;5036968;28;20053;-75
2022/09/19 13:14:47;;;;;;;19.30;3.28;;;16.10;99.90;;;;;;5019272;28;20053;-75
2022/09/19 13:25:31;;;;;;;14.70;3.33;;;16.30;99.90;;;;;;5053282;28;20056;-75
2022/09/19 13:28:24;;;;;;;16.85;2.80;;;16.20;99.90;;;;;;5038648;28;20049;-75
2022/09/19 13:31:05;;;;;;;14.23;2.78;;;16.10;99.90;;;;;;5055800;28;20040;-76
2022/09/19 13:33:44;;;;;;;15.95;2.90;;;16.20;99.90;;;;;;5039569;28;20053;-75
2022/09/19 13:36:34;;;;;;;16.08;3.33;;;16.30;99.90;;;;;;5056378;28;20049;-75